createdAt,value
2023-03-28T00:01:13.280Z,0.80
2023-03-28T00:03:40.695Z,0.73
2023-03-28T00:06:16.281Z,0.80
2023-03-28T00:08:42.942Z,0.57
2023-03-28T00:11:19.591Z,0.40
2023-03-28T00:13:48.448Z,0.50
2023-03-28T00:16:16.816Z,0.80
2023-03-28T00:18:43.598Z,0.50
2023-03-28T00:21:25.099Z,0.70
2023-03-28T00:23:57.272Z,1.40
2023-03-28T00:26:26.535Z,0.85
2023-03-28T00:28:55.111Z,0.73
2023-03-28T00:31:23.825Z,0.68
2023-03-28T00:33:50.481Z,0.70
2023-03-28T00:36:22.676Z,0.90
2023-03-28T00:38:50.026Z,0.60
2023-03-28T00:41:18.421Z,0.65
2023-03-28T00:43:47.229Z,0.55
2023-03-28T00:46:19.929Z,0.60
2023-03-28T00:48:52.465Z,0.53
2023-03-28T00:51:24.981Z,0.65
2023-03-28T00:53:52.912Z,0.55
2023-03-28T00:56:23.827Z,0.80
2023-03-28T00:58:51.931Z,0.50
2023-03-28T01:01:20.437Z,0.67
2023-03-28T01:03:56.197Z,0.68
2023-03-28T01:06:25.257Z,0.63
2023-03-28T01:08:52.874Z,0.35
2023-03-28T01:11:21.594Z,0.60
2023-03-28T01:13:50.799Z,0.57
2023-03-28T01:16:20.759Z,0.40
2023-03-28T01:18:51.978Z,0.88
2023-03-28T01:21:48.605Z,0.82
2023-03-28T01:24:54.062Z,0.90
2023-03-28T01:27:36.358Z,1.47
2023-03-28T01:30:22.407Z,1.10
2023-03-28T01:33:37.054Z,0.63
2023-03-28T01:36:34.504Z,0.55
2023-03-28T01:39:42.425Z,0.50
2023-03-28T01:42:27.372Z,0.53
2023-03-28T01:45:29.206Z,0.80
2023-03-28T01:48:23.794Z,0.52
2023-03-28T01:51:05.670Z,0.95
2023-03-28T01:53:41.440Z,1.73
2023-03-28T01:56:11.755Z,0.53
2023-03-28T01:58:57.464Z,0.63
2023-03-28T02:01:47.635Z,1.13
2023-03-28T02:04:21.486Z,0.80
2023-03-28T02:06:59.108Z,0.82
2023-03-28T02:09:32.898Z,0.53
2023-03-28T02:12:37.633Z,0.68
2023-03-28T02:15:15.305Z,0.95
2023-03-28T02:18:05.218Z,1.00
2023-03-28T02:20:49.836Z,0.70
2023-03-28T02:23:53.941Z,1.53
2023-03-28T02:26:38.707Z,0.73
2023-03-28T02:29:19.005Z,0.60
2023-03-28T02:32:06.033Z,0.68
2023-03-28T02:34:32.608Z,0.75
2023-03-28T02:37:17.496Z,0.80
2023-03-28T02:40:16.231Z,0.93
2023-03-28T02:43:02.457Z,0.75
2023-03-28T02:45:44.091Z,0.90
2023-03-28T02:48:15.370Z,0.63
2023-03-28T02:51:01.246Z,0.97
2023-03-28T02:53:44.569Z,0.52
2023-03-28T02:56:29.641Z,0.80
2023-03-28T02:59:03.834Z,0.90
2023-03-28T03:01:30.895Z,0.70
2023-03-28T03:03:58.664Z,1.47
2023-03-28T03:06:25.260Z,0.88
2023-03-28T03:08:51.838Z,1.52
2023-03-28T03:11:18.389Z,1.20
2023-03-28T03:13:47.380Z,1.67
2023-03-28T03:16:14.163Z,2.17
2023-03-28T03:18:40.962Z,1.15
2023-03-28T03:21:08.032Z,1.50
2023-03-28T03:23:36.668Z,1.40
2023-03-28T03:26:03.725Z,1.40
2023-03-28T03:28:51.818Z,1.23
2023-03-28T03:31:19.585Z,1.40
2023-03-28T03:33:49.113Z,1.60
2023-03-28T03:36:20.288Z,1.77
2023-03-28T03:38:47.966Z,1.35
2023-03-28T03:41:20.318Z,1.57
2023-03-28T03:43:48.376Z,2.35
2023-03-28T03:46:14.961Z,2.30
2023-03-28T03:48:49.212Z,1.17
2023-03-28T03:51:16.375Z,1.08
2023-03-28T03:53:42.868Z,1.30
2023-03-28T03:56:12.869Z,1.38
2023-03-28T03:58:53.609Z,1.83
2023-03-28T04:01:22.415Z,2.03
2023-03-28T04:03:49.310Z,1.17
2023-03-28T04:06:23.565Z,1.53
2023-03-28T04:08:51.443Z,1.30
2023-03-28T04:11:30.093Z,1.90
2023-03-28T04:13:57.143Z,1.65
2023-03-28T04:16:23.903Z,2.08
2023-03-28T04:18:57.900Z,1.80
2023-03-28T04:21:28.076Z,1.45
2023-03-28T04:23:56.116Z,1.20
2023-03-28T04:26:39.506Z,1.48
2023-03-28T04:29:10.437Z,1.65
2023-03-28T04:31:39.972Z,1.93
2023-03-28T04:34:07.293Z,1.50
2023-03-28T04:36:42.220Z,1.67
2023-03-28T04:39:08.848Z,1.10
2023-03-28T04:41:50.242Z,1.40
2023-03-28T04:44:45.486Z,1.37
2023-03-28T04:47:12.873Z,1.17
2023-03-28T04:49:39.592Z,1.70
2023-03-28T04:52:06.758Z,1.50
2023-03-28T04:54:34.123Z,1.50
2023-03-28T04:57:05.759Z,1.30
2023-03-28T04:59:40.619Z,1.20
2023-03-28T05:02:07.855Z,1.65
2023-03-28T05:04:42.458Z,1.58
2023-03-28T05:07:09.691Z,1.52
2023-03-28T05:09:36.201Z,1.97
2023-03-28T05:12:02.798Z,1.40
2023-03-28T05:14:30.516Z,1.40
2023-03-28T05:17:10.801Z,1.13
2023-03-28T05:19:47.284Z,1.15
2023-03-28T05:22:20.019Z,1.40
2023-03-28T05:24:48.240Z,1.98
2023-03-28T05:27:17.920Z,1.20
2023-03-28T05:29:44.889Z,1.60
2023-03-28T05:32:12.853Z,2.00
2023-03-28T05:34:40.705Z,1.50
2023-03-28T05:37:07.217Z,1.30
2023-03-28T05:39:44.438Z,1.20
2023-03-28T05:42:12.220Z,1.02
2023-03-28T05:44:40.126Z,1.55
2023-03-28T05:47:22.014Z,1.40
2023-03-28T05:49:48.676Z,1.15
2023-03-28T05:52:15.482Z,1.08
2023-03-28T05:54:42.089Z,1.02
2023-03-28T05:57:19.393Z,1.50
2023-03-28T05:59:46.335Z,1.30
2023-03-28T06:02:17.417Z,1.60
2023-03-28T06:04:44.986Z,1.70
2023-03-28T06:07:14.281Z,2.67
2023-03-28T06:09:41.828Z,1.98
2023-03-28T06:12:09.893Z,1.87
2023-03-28T06:14:41.644Z,1.40
2023-03-28T06:17:17.027Z,1.77
2023-03-28T06:19:49.010Z,2.33
2023-03-28T06:22:15.686Z,1.75
2023-03-28T06:24:47.111Z,2.20
2023-03-28T06:27:13.646Z,1.67
2023-03-28T06:29:40.481Z,1.95
2023-03-28T06:32:07.082Z,1.95
2023-03-28T06:34:33.717Z,2.05
2023-03-28T06:37:02.071Z,2.07
2023-03-28T06:39:43.152Z,2.22
2023-03-28T06:42:09.672Z,1.83
2023-03-28T06:44:46.396Z,2.78
2023-03-28T06:47:29.609Z,2.58
2023-03-28T06:49:56.355Z,2.70
2023-03-28T06:52:23.201Z,2.15
2023-03-28T06:54:51.713Z,2.13
2023-03-28T06:57:18.284Z,3.05
2023-03-28T06:59:47.020Z,2.30
2023-03-28T07:02:19.692Z,2.10
2023-03-28T07:04:47.304Z,2.40
2023-03-28T07:07:14.360Z,2.58
2023-03-28T07:09:42.082Z,2.20
2023-03-28T07:12:11.364Z,2.10
2023-03-28T07:14:40.271Z,2.70
2023-03-28T07:17:07.384Z,2.40
2023-03-28T07:19:35.574Z,3.40
2023-03-28T07:22:02.324Z,2.63
2023-03-28T07:24:29.681Z,2.83
2023-03-28T07:27:15.609Z,2.50
2023-03-28T07:29:44.757Z,2.78
2023-03-28T07:32:11.810Z,2.67
2023-03-28T07:34:38.335Z,2.70
2023-03-28T07:37:08.858Z,3.00
2023-03-28T07:39:50.610Z,2.57
2023-03-28T07:42:21.771Z,2.60
2023-03-28T07:44:48.304Z,1.98
2023-03-28T07:47:16.707Z,2.38
2023-03-28T07:49:43.257Z,2.47
2023-03-28T07:52:09.762Z,2.60
2023-03-28T07:54:36.721Z,2.15
2023-03-28T07:57:03.840Z,2.15
2023-03-28T07:59:50.387Z,2.30
2023-03-28T08:02:17.904Z,2.38
2023-03-28T08:04:44.467Z,2.07
2023-03-28T08:07:12.687Z,1.70
2023-03-28T08:09:42.296Z,1.77
2023-03-28T08:12:16.465Z,1.67
2023-03-28T08:14:43.372Z,1.65
2023-03-28T08:17:10.579Z,1.80
2023-03-28T08:19:37.282Z,1.83
2023-03-28T08:22:13.108Z,1.75
2023-03-28T08:24:52.277Z,1.52
2023-03-28T08:27:21.544Z,1.52
2023-03-28T08:29:51.622Z,1.40
2023-03-28T08:32:18.758Z,1.23
2023-03-28T08:34:46.166Z,1.20
2023-03-28T08:37:16.033Z,1.17
2023-03-28T08:39:47.297Z,0.82
2023-03-28T08:43:10.756Z,0.90
2023-03-28T08:45:59.993Z,1.10
2023-03-28T08:48:34.397Z,0.82
2023-03-28T08:51:04.215Z,1.38
2023-03-28T08:53:39.042Z,0.88
2023-03-28T08:56:07.150Z,0.57
2023-03-28T08:58:42.582Z,0.40
2023-03-28T09:01:10.191Z,0.85
2023-03-28T09:03:36.883Z,0.50
2023-03-28T09:06:09.134Z,0.88
2023-03-28T09:08:44.844Z,0.47
2023-03-28T09:11:14.260Z,0.52
2023-03-28T09:14:00.761Z,0.80
2023-03-28T09:17:12.169Z,0.55
2023-03-28T09:20:11.182Z,0.60
2023-03-28T09:23:18.390Z,0.57
2023-03-28T09:26:10.818Z,0.52
2023-03-28T09:28:48.942Z,0.60
2023-03-28T09:31:18.594Z,0.88
2023-03-28T09:33:48.707Z,0.60
2023-03-28T09:36:34.326Z,1.13
2023-03-28T09:39:18.533Z,0.68
2023-03-28T09:42:07.841Z,0.50
2023-03-28T09:45:25.468Z,0.40
2023-03-28T09:48:21.178Z,0.50
2023-03-28T09:50:48.357Z,0.70
2023-03-28T09:53:42.455Z,0.65
2023-03-28T09:56:26.282Z,0.90
2023-03-28T09:58:58.899Z,0.40
2023-03-28T10:01:53.261Z,0.60
2023-03-28T10:04:30.541Z,0.60
2023-03-28T10:07:12.447Z,0.98
2023-03-28T10:09:50.667Z,0.95
2023-03-28T10:12:22.296Z,0.95
2023-03-28T10:14:48.970Z,0.68
2023-03-28T10:17:37.258Z,0.50
2023-03-28T10:20:21.544Z,1.27
2023-03-28T10:22:54.782Z,0.52
2023-03-28T10:25:31.949Z,0.50
2023-03-28T10:28:00.967Z,0.47
2023-03-28T10:30:30.714Z,0.60
2023-03-28T10:33:10.285Z,0.80
2023-03-28T10:35:58.646Z,0.85
2023-03-28T10:38:32.289Z,1.00
2023-03-28T10:41:26.146Z,0.60
2023-03-28T10:44:27.149Z,1.10
2023-03-28T10:47:10.587Z,1.30
2023-03-28T10:49:51.269Z,0.93
2023-03-28T10:52:37.710Z,0.80
2023-03-28T10:55:11.720Z,1.10
2023-03-28T10:58:27.655Z,0.70
2023-03-28T11:01:19.561Z,0.80
2023-03-28T11:04:16.445Z,1.10
2023-03-28T11:06:53.311Z,0.90
2023-03-28T11:09:45.650Z,0.70
2023-03-28T11:13:04.834Z,0.87
2023-03-28T11:15:58.864Z,1.00
2023-03-28T11:18:49.034Z,1.00
2023-03-28T11:21:42.359Z,0.95
2023-03-28T11:24:54.588Z,1.10
2023-03-28T11:28:08.692Z,1.10
2023-03-28T11:30:42.576Z,1.20
2023-03-28T11:33:29.579Z,1.50
2023-03-28T11:36:15.300Z,1.85
2023-03-28T11:38:51.789Z,1.73
2023-03-28T11:41:22.011Z,1.50
2023-03-28T11:44:28.649Z,1.30
2023-03-28T11:47:08.346Z,1.10
2023-03-28T11:49:45.843Z,1.45
2023-03-28T11:52:39.081Z,1.77
2023-03-28T11:55:23.856Z,1.30
2023-03-28T11:58:16.603Z,1.67
2023-03-28T12:00:48.781Z,1.92
2023-03-28T12:03:23.556Z,1.50
2023-03-28T12:06:12.714Z,1.75
2023-03-28T12:08:45.774Z,2.17
2023-03-28T12:11:21.540Z,1.90
2023-03-28T12:14:31.104Z,1.83
2023-03-28T12:17:15.706Z,2.30
2023-03-28T12:19:42.699Z,1.98
2023-03-28T12:22:14.694Z,2.30
2023-03-28T12:24:52.505Z,1.70
2023-03-28T12:27:42.204Z,1.58
2023-03-28T12:30:25.901Z,2.33
2023-03-28T12:32:54.495Z,1.45
2023-03-28T12:35:37.079Z,1.60
2023-03-28T12:38:37.562Z,1.48
2023-03-28T12:41:31.033Z,1.80
2023-03-28T12:44:22.805Z,1.65
2023-03-28T12:47:00.275Z,2.15
2023-03-28T12:49:43.914Z,2.43
2023-03-28T12:52:19.540Z,1.90
2023-03-28T12:54:55.728Z,1.58
2023-03-28T12:57:41.160Z,1.20
2023-03-28T13:00:23.733Z,1.08
2023-03-28T13:03:26.244Z,1.23
2023-03-28T13:06:09.034Z,1.15
2023-03-28T13:08:47.830Z,1.20
2023-03-28T13:11:16.965Z,1.27
2023-03-28T13:14:04.617Z,1.20
2023-03-28T13:16:56.760Z,1.00
2023-03-28T13:19:43.949Z,1.40
2023-03-28T13:22:42.460Z,1.33
2023-03-28T13:25:22.795Z,1.13
2023-03-28T13:27:51.999Z,1.30
2023-03-28T13:30:19.737Z,1.10
2023-03-28T13:32:49.993Z,1.15
2023-03-28T13:35:46.312Z,1.30
2023-03-28T13:38:14.078Z,1.20
2023-03-28T13:40:44.220Z,1.25
2023-03-28T13:43:38.652Z,1.30
2023-03-28T13:46:14.435Z,1.60
2023-03-28T13:48:52.581Z,1.48
2023-03-28T13:51:23.592Z,1.58
2023-03-28T13:53:50.611Z,1.50
2023-03-28T13:56:23.975Z,1.40
2023-03-28T13:58:56.053Z,1.15
2023-03-28T14:01:34.393Z,1.48
2023-03-28T14:04:01.110Z,1.35
2023-03-28T14:06:30.547Z,1.00
2023-03-28T14:09:01.906Z,2.00
2023-03-28T14:11:34.388Z,1.27
2023-03-28T14:14:10.334Z,1.35
2023-03-28T14:16:37.934Z,1.48
2023-03-28T14:19:05.766Z,1.20
2023-03-28T14:21:33.147Z,2.20
2023-03-28T14:24:07.412Z,1.92
2023-03-28T14:26:37.117Z,1.70
2023-03-28T14:29:10.256Z,1.63
2023-03-28T14:31:40.298Z,2.03
2023-03-28T14:34:17.997Z,1.70
2023-03-28T14:36:58.576Z,1.60
2023-03-28T14:39:31.307Z,1.80
2023-03-28T14:42:01.678Z,2.67
2023-03-28T14:44:29.784Z,2.10
2023-03-28T14:46:58.927Z,2.03
2023-03-28T14:49:26.211Z,1.60
2023-03-28T14:52:03.409Z,1.77
2023-03-28T14:54:34.784Z,2.05
2023-03-28T14:57:03.936Z,2.10
2023-03-28T14:59:41.125Z,2.00
2023-03-28T15:02:22.555Z,2.50
2023-03-28T15:04:49.725Z,2.15
2023-03-28T15:07:23.827Z,2.50
2023-03-28T15:10:12.124Z,3.25
2023-03-28T15:12:43.893Z,2.60
2023-03-28T15:15:24.438Z,2.75
2023-03-28T15:17:52.541Z,2.45
2023-03-28T15:20:27.981Z,2.40
2023-03-28T15:22:56.780Z,3.00
2023-03-28T15:25:24.559Z,2.17
2023-03-28T15:27:57.910Z,2.30
2023-03-28T15:30:25.485Z,2.95
2023-03-28T15:32:59.625Z,2.58
2023-03-28T15:35:31.378Z,2.00
2023-03-28T15:38:06.590Z,1.97
2023-03-28T15:40:40.081Z,2.20
2023-03-28T15:43:07.697Z,2.63
2023-03-28T15:45:41.534Z,2.17
2023-03-28T15:48:17.752Z,1.88
2023-03-28T15:50:49.514Z,2.43
2023-03-28T15:53:17.072Z,2.28
2023-03-28T15:55:46.050Z,2.47
2023-03-28T15:58:19.018Z,2.42
2023-03-28T16:00:51.818Z,2.30
2023-03-28T16:03:18.607Z,2.00
2023-03-28T16:05:59.727Z,2.10
2023-03-28T16:08:38.685Z,1.80
2023-03-28T16:11:06.481Z,2.03
2023-03-28T16:13:36.006Z,2.15
2023-03-28T16:16:28.067Z,5.33
2023-03-28T16:19:17.353Z,2.40
2023-03-28T16:21:43.993Z,2.35
2023-03-28T16:24:10.532Z,2.95
2023-03-28T16:26:37.168Z,2.40
2023-03-28T16:29:03.946Z,3.20
2023-03-28T16:31:30.791Z,2.03
2023-03-28T16:33:57.324Z,2.40
2023-03-28T16:36:23.863Z,3.05
2023-03-28T16:38:50.361Z,2.67
2023-03-28T16:41:16.855Z,2.43
2023-03-28T16:43:43.338Z,2.63
2023-03-28T16:46:12.250Z,2.60
2023-03-28T16:48:39.285Z,2.60
2023-03-28T16:51:06.695Z,4.07
2023-03-28T16:53:34.826Z,2.97
2023-03-28T16:56:01.876Z,2.55
2023-03-28T16:58:29.754Z,5.03
2023-03-28T17:00:56.503Z,3.35
2023-03-28T17:03:23.512Z,2.00
2023-03-28T17:05:50.479Z,2.70
2023-03-28T17:08:16.954Z,3.00
2023-03-28T17:10:43.716Z,2.63
2023-03-28T17:13:10.513Z,3.45
2023-03-28T17:15:37.131Z,2.38
2023-03-28T17:18:05.670Z,2.23
2023-03-28T17:20:32.268Z,2.30
2023-03-28T17:22:58.820Z,2.03
2023-03-28T17:25:25.686Z,2.17
2023-03-28T17:27:52.312Z,2.85
2023-03-28T17:30:18.914Z,2.17
2023-03-28T17:32:45.576Z,2.13
2023-03-28T17:35:12.217Z,2.00
2023-03-28T17:37:39.399Z,2.13
2023-03-28T17:40:06.903Z,2.00
2023-03-28T17:42:33.703Z,2.00
2023-03-28T17:45:00.426Z,2.15
2023-03-28T17:47:26.959Z,2.35
2023-03-28T17:49:55.828Z,2.10
2023-03-28T17:52:22.500Z,2.00
2023-03-28T17:54:51.345Z,2.20
2023-03-28T17:57:18.605Z,2.05
2023-03-28T17:59:45.581Z,1.98
2023-03-28T18:02:12.201Z,2.17
2023-03-28T18:04:38.807Z,2.42
2023-03-28T18:07:21.270Z,1.97
2023-03-28T18:09:48.010Z,2.15
2023-03-28T18:12:14.640Z,2.47
2023-03-28T18:14:41.246Z,2.50
2023-03-28T18:17:08.339Z,1.98
2023-03-28T18:19:35.574Z,2.00
2023-03-28T18:22:02.391Z,1.90
2023-03-28T18:24:29.578Z,2.10
2023-03-28T18:26:56.326Z,2.30
2023-03-28T18:29:22.970Z,2.00
2023-03-28T18:31:49.631Z,2.00
2023-03-28T18:34:16.173Z,1.67
2023-03-28T18:36:43.754Z,1.65
2023-03-28T18:39:10.418Z,1.90
2023-03-28T18:41:37.154Z,2.35
2023-03-28T18:44:04.838Z,1.53
2023-03-28T18:46:33.716Z,1.63
2023-03-28T18:49:00.788Z,1.60
2023-03-28T18:51:27.884Z,1.42
2023-03-28T18:53:54.801Z,1.55
2023-03-28T18:56:21.963Z,1.50
2023-03-28T18:58:50.326Z,1.55
2023-03-28T19:01:17.453Z,1.92
2023-03-28T19:03:44.949Z,1.75
2023-03-28T19:06:13.777Z,1.73
2023-03-28T19:08:40.473Z,2.30
2023-03-28T19:11:12.711Z,1.48
2023-03-28T19:13:40.915Z,1.67
2023-03-28T19:16:13.186Z,2.03
2023-03-28T19:18:41.630Z,1.52
2023-03-28T19:21:10.557Z,1.40
2023-03-28T19:23:37.425Z,1.55
2023-03-28T19:26:05.681Z,1.60
2023-03-28T19:28:34.439Z,1.73
2023-03-28T19:31:04.273Z,1.77
2023-03-28T19:33:30.976Z,1.80
2023-03-28T19:35:57.591Z,2.92
2023-03-28T19:38:26.327Z,1.98
2023-03-28T19:41:00.469Z,1.58
2023-03-28T19:43:30.512Z,1.75
2023-03-28T19:46:07.590Z,1.20
2023-03-28T19:48:35.872Z,1.15
2023-03-28T19:51:03.199Z,0.90
2023-03-28T19:53:30.037Z,1.20
2023-03-28T19:56:01.413Z,0.93
2023-03-28T19:58:28.781Z,0.67
2023-03-28T20:00:58.707Z,0.70
2023-03-28T20:03:25.553Z,0.80
2023-03-28T20:05:52.251Z,0.70
2023-03-28T20:08:19.339Z,1.20
2023-03-28T20:10:48.504Z,1.20
2023-03-28T20:13:16.577Z,0.88
2023-03-28T20:15:44.706Z,0.80
2023-03-28T20:18:20.065Z,1.27
2023-03-28T20:20:57.896Z,1.13
2023-03-28T20:23:26.097Z,1.00
2023-03-28T20:25:54.062Z,0.75
2023-03-28T20:28:24.445Z,0.60
2023-03-28T20:30:53.074Z,0.75
2023-03-28T20:33:20.709Z,0.50
2023-03-28T20:35:55.246Z,0.63
2023-03-28T20:38:22.150Z,0.82
2023-03-28T20:40:48.848Z,0.70
2023-03-28T20:43:22.011Z,0.63
2023-03-28T20:45:55.591Z,0.80
2023-03-28T20:48:34.925Z,0.90
2023-03-28T20:51:15.067Z,0.90
2023-03-28T20:53:47.451Z,1.02
2023-03-28T20:56:14.504Z,0.90
2023-03-28T20:58:42.907Z,1.00
2023-03-28T21:01:12.659Z,1.27
2023-03-28T21:03:49.728Z,1.10
2023-03-28T21:06:21.303Z,1.17
2023-03-28T21:08:49.718Z,1.35
2023-03-28T21:11:19.454Z,1.17
2023-03-28T21:13:46.010Z,0.87
2023-03-28T21:16:16.641Z,1.15
2023-03-28T21:18:43.715Z,1.17
2023-03-28T21:21:11.502Z,1.00
2023-03-28T21:23:40.538Z,1.50
2023-03-28T21:26:08.813Z,1.43
2023-03-28T21:28:35.582Z,1.30
2023-03-28T21:31:09.016Z,1.30
2023-03-28T21:33:37.309Z,1.65
2023-03-28T21:36:10.140Z,1.55
2023-03-28T21:38:37.636Z,1.47
2023-03-28T21:41:05.744Z,1.27
2023-03-28T21:43:32.472Z,1.80
2023-03-28T21:45:59.104Z,1.92
2023-03-28T21:48:25.704Z,1.85
2023-03-28T21:50:54.044Z,2.00
2023-03-28T21:53:21.709Z,1.55
2023-03-28T21:55:48.288Z,1.75
2023-03-28T21:58:14.799Z,1.85
2023-03-28T22:00:41.343Z,2.13
2023-03-28T22:03:08.007Z,1.60
2023-03-28T22:05:42.693Z,1.48
2023-03-28T22:08:12.060Z,1.70
2023-03-28T22:10:45.871Z,1.50
2023-03-28T22:13:13.840Z,1.58
2023-03-28T22:15:40.403Z,2.07
2023-03-28T22:18:09.194Z,1.35
2023-03-28T22:20:38.520Z,1.73
2023-03-28T22:23:06.221Z,1.58
2023-03-28T22:25:35.891Z,1.45
2023-03-28T22:28:04.245Z,1.60
2023-03-28T22:30:32.402Z,1.45
2023-03-28T22:32:58.983Z,1.40
2023-03-28T22:35:25.568Z,1.13
2023-03-28T22:37:52.408Z,1.35
2023-03-28T22:40:19.161Z,1.80
2023-03-28T22:42:46.760Z,1.70
2023-03-28T22:45:13.269Z,1.42
2023-03-28T22:47:39.828Z,1.38
2023-03-28T22:50:14.643Z,1.45
2023-03-28T22:52:42.062Z,1.93
2023-03-28T22:55:11.040Z,1.73
2023-03-28T22:57:37.741Z,1.83
2023-03-28T23:00:06.505Z,2.00
2023-03-28T23:02:33.175Z,1.70
2023-03-28T23:05:01.975Z,1.53
2023-03-28T23:07:29.238Z,1.67
2023-03-28T23:09:56.048Z,1.75
2023-03-28T23:12:22.522Z,1.95
2023-03-28T23:14:49.033Z,1.70
2023-03-28T23:17:15.525Z,2.00
2023-03-28T23:19:42.145Z,1.90
2023-03-28T23:22:10.005Z,1.73
2023-03-28T23:24:37.002Z,2.40
2023-03-28T23:27:04.891Z,2.35
2023-03-28T23:29:31.356Z,2.43
2023-03-28T23:31:58.272Z,2.30
2023-03-28T23:34:24.863Z,2.40
2023-03-28T23:36:52.292Z,2.28
2023-03-28T23:39:19.053Z,2.50
2023-03-28T23:41:45.511Z,2.20
2023-03-28T23:44:12.024Z,2.75
2023-03-28T23:46:38.569Z,3.17
2023-03-28T23:49:05.337Z,3.03
2023-03-28T23:51:32.291Z,2.80
2023-03-28T23:53:58.760Z,2.47
2023-03-28T23:56:26.039Z,2.95
2023-03-28T23:58:52.543Z,2.75
